createdAt,value
2016-09-05T00:00:03.248Z,1008.8
2016-09-05T00:00:13.242Z,1008.84
2016-09-05T00:00:23.242Z,1008.78
2016-09-05T00:00:33.228Z,1008.8
2016-09-05T00:00:43.229Z,1008.79
2016-09-05T00:00:53.222Z,1008.8
2016-09-05T00:01:03.218Z,1008.84
2016-09-05T00:01:13.212Z,1008.78
2016-09-05T00:01:23.213Z,1008.84
2016-09-05T00:01:33.203Z,1008.84
2016-09-05T00:01:43.198Z,1008.85
2016-09-05T00:01:53.193Z,1008.88
2016-09-05T00:02:03.196Z,1008.82
2016-09-05T00:02:13.183Z,1008.81
2016-09-05T00:02:23.177Z,1008.87
2016-09-05T00:02:33.174Z,1008.83
2016-09-05T00:02:43.169Z,1008.84
2016-09-05T00:02:53.164Z,1008.88
2016-09-05T00:03:03.160Z,1008.84
2016-09-05T00:03:13.154Z,1008.8
2016-09-05T00:03:23.149Z,1008.83
2016-09-05T00:03:33.147Z,1008.84
2016-09-05T00:03:43.141Z,1008.9
2016-09-05T00:03:53.136Z,1008.77
2016-09-05T00:04:03.130Z,1008.88
2016-09-05T00:04:13.128Z,1008.83
2016-09-05T00:04:23.121Z,1008.85
2016-09-05T00:04:33.116Z,1008.83
2016-09-05T00:04:43.112Z,1008.87
2016-09-05T00:04:53.107Z,1008.88
2016-09-05T00:05:03.103Z,1008.8
2016-09-05T00:05:13.098Z,1008.83
2016-09-05T00:05:23.094Z,1008.81
2016-09-05T00:05:33.089Z,1008.83
2016-09-05T00:05:43.084Z,1008.85
2016-09-05T00:05:53.078Z,1008.88
2016-09-05T00:06:03.074Z,1008.81
2016-09-05T00:06:13.069Z,1008.84
2016-09-05T00:06:23.062Z,1008.87
2016-09-05T00:06:33.060Z,1008.87
2016-09-05T00:06:43.054Z,1008.83
2016-09-05T00:06:53.053Z,1008.87
2016-09-05T00:07:03.045Z,1008.91
2016-09-05T00:07:13.038Z,1008.86
2016-09-05T00:07:23.035Z,1008.86
2016-09-05T00:07:33.031Z,1008.86
2016-09-05T00:07:43.026Z,1008.89
2016-09-05T00:07:53.020Z,1008.83
2016-09-05T00:08:03.015Z,1008.84
2016-09-05T00:08:13.011Z,1008.86
2016-09-05T00:08:23.006Z,1008.84
2016-09-05T00:08:33.003Z,1008.93
2016-09-05T00:08:42.999Z,1008.89
2016-09-05T00:08:52.994Z,1008.79
2016-09-05T00:09:02.986Z,1008.87
2016-09-05T00:09:12.984Z,1008.89
2016-09-05T00:09:22.980Z,1008.85
2016-09-05T00:09:32.972Z,1008.83
2016-09-05T00:09:42.970Z,1008.8
2016-09-05T00:09:52.963Z,1008.81
2016-09-05T00:10:02.960Z,1008.9
2016-09-05T00:10:12.968Z,1008.83
2016-09-05T00:10:22.952Z,1008.85
2016-09-05T00:10:32.946Z,1008.86
2016-09-05T00:10:42.941Z,1008.79
2016-09-05T00:10:52.937Z,1008.83
2016-09-05T00:11:02.933Z,1008.87
2016-09-05T00:11:12.927Z,1008.9
2016-09-05T00:11:22.922Z,1008.92
2016-09-05T00:11:32.916Z,1008.96
2016-09-05T00:11:42.913Z,1008.82
2016-09-05T00:11:52.907Z,1008.89
2016-09-05T00:12:02.903Z,1008.88
2016-09-05T00:12:12.899Z,1008.9
2016-09-05T00:12:22.891Z,1008.87
2016-09-05T00:12:32.887Z,1008.91
2016-09-05T00:12:42.884Z,1008.93
2016-09-05T00:12:52.878Z,1008.91
2016-09-05T00:13:02.874Z,1008.94
2016-09-05T00:13:12.869Z,1008.9
2016-09-05T00:13:22.864Z,1008.9
2016-09-05T00:13:32.862Z,1008.86
2016-09-05T00:13:42.855Z,1008.92
2016-09-05T00:13:52.851Z,1008.92
2016-09-05T00:14:02.848Z,1008.92
2016-09-05T00:14:12.838Z,1008.95
2016-09-05T00:14:22.835Z,1008.93
2016-09-05T00:14:32.833Z,1008.9
2016-09-05T00:14:42.826Z,1008.85
2016-09-05T00:14:52.820Z,1008.87
2016-09-05T00:15:02.817Z,1008.89
2016-09-05T00:15:12.809Z,1008.91
2016-09-05T00:15:22.809Z,1008.9
2016-09-05T00:15:32.804Z,1008.91
2016-09-05T00:15:43.528Z,1008.94
2016-09-05T00:15:52.793Z,1008.92
2016-09-05T00:16:02.788Z,1008.95
2016-09-05T00:16:12.785Z,1008.93
2016-09-05T00:16:22.778Z,1008.92
2016-09-05T00:16:32.775Z,1008.91
2016-09-05T00:16:42.770Z,1008.9
2016-09-05T00:16:52.770Z,1008.94
2016-09-05T00:17:02.760Z,1008.92
2016-09-05T00:17:12.756Z,1008.96
2016-09-05T00:17:22.750Z,1008.97
2016-09-05T00:17:32.746Z,1008.95
2016-09-05T00:17:42.740Z,1008.97
2016-09-05T00:17:52.738Z,1008.96
2016-09-05T00:18:02.733Z,1008.93
2016-09-05T00:18:12.724Z,1008.89
2016-09-05T00:18:22.722Z,1008.99
2016-09-05T00:18:32.717Z,1008.93
2016-09-05T00:18:42.711Z,1008.97
2016-09-05T00:18:52.706Z,1008.96
2016-09-05T00:19:02.708Z,1008.9
2016-09-05T00:19:12.696Z,1008.93
2016-09-05T00:19:22.692Z,1008.98
2016-09-05T00:19:32.688Z,1008.92
2016-09-05T00:19:42.683Z,1008.91
2016-09-05T00:19:52.679Z,1008.95
2016-09-05T00:20:02.675Z,1008.99
2016-09-05T00:20:12.671Z,1008.95
2016-09-05T00:20:22.665Z,1008.99
2016-09-05T00:20:32.659Z,1008.98
2016-09-05T00:20:42.655Z,1008.99
2016-09-05T00:20:52.651Z,1009.03
2016-09-05T00:21:02.647Z,1009.08
2016-09-05T00:21:12.643Z,1009.04
2016-09-05T00:21:22.636Z,1009.02
2016-09-05T00:21:32.630Z,1008.98
2016-09-05T00:21:42.625Z,1009.04
2016-09-05T00:21:52.621Z,1008.95
2016-09-05T00:22:02.616Z,1009.05
2016-09-05T00:22:12.612Z,1008.99
2016-09-05T00:22:22.608Z,1009.01
2016-09-05T00:22:32.603Z,1008.96
2016-09-05T00:22:42.599Z,1009.04
2016-09-05T00:22:52.593Z,1008.98
2016-09-05T00:23:02.586Z,1008.98
2016-09-05T00:23:12.585Z,1008.96
2016-09-05T00:23:22.577Z,1009.01
2016-09-05T00:23:32.572Z,1008.98
2016-09-05T00:23:42.569Z,1008.92
2016-09-05T00:23:52.566Z,1008.98
2016-09-05T00:24:02.559Z,1008.94
2016-09-05T00:24:12.555Z,1009
2016-09-05T00:24:22.551Z,1008.99
2016-09-05T00:24:32.546Z,1009.01
2016-09-05T00:24:42.542Z,1009.03
2016-09-05T00:24:52.537Z,1008.94
2016-09-05T00:25:02.532Z,1008.97
2016-09-05T00:25:12.529Z,1008.93
2016-09-05T00:25:22.523Z,1009
2016-09-05T00:25:32.517Z,1008.96
2016-09-05T00:25:42.511Z,1008.97
2016-09-05T00:25:52.507Z,1008.96
2016-09-05T00:26:02.503Z,1008.99
2016-09-05T00:26:12.498Z,1008.96
2016-09-05T00:26:22.493Z,1008.96
2016-09-05T00:26:32.488Z,1008.99
2016-09-05T00:26:42.485Z,1009
2016-09-05T00:26:52.480Z,1009
2016-09-05T00:27:02.474Z,1008.98
2016-09-05T00:27:12.471Z,1008.99
2016-09-05T00:27:22.462Z,1008.98
2016-09-05T00:27:32.460Z,1008.96
2016-09-05T00:27:42.454Z,1008.98
2016-09-05T00:27:52.452Z,1008.98
2016-09-05T00:28:02.447Z,1008.98
2016-09-05T00:28:12.441Z,1008.98
2016-09-05T00:28:22.438Z,1009
2016-09-05T00:28:32.431Z,1008.97
2016-09-05T00:28:42.426Z,1008.9
2016-09-05T00:28:52.422Z,1008.91
2016-09-05T00:29:02.417Z,1008.96
2016-09-05T00:29:12.415Z,1008.95
2016-09-05T00:29:22.412Z,1008.9
2016-09-05T00:29:32.402Z,1008.93
2016-09-05T00:29:42.398Z,1008.95
2016-09-05T00:29:52.394Z,1008.87
2016-09-05T00:30:02.393Z,1008.94
2016-09-05T00:30:12.382Z,1008.89
2016-09-05T00:30:22.380Z,1008.91
2016-09-05T00:30:32.374Z,1008.92
2016-09-05T00:30:42.370Z,1008.92
2016-09-05T00:30:52.364Z,1008.91
2016-09-05T00:31:02.361Z,1008.9
2016-09-05T00:31:12.356Z,1008.91
2016-09-05T00:31:22.351Z,1008.9
2016-09-05T00:31:32.345Z,1008.86
2016-09-05T00:31:42.339Z,1008.88
2016-09-05T00:31:52.337Z,1008.9
2016-09-05T00:32:02.342Z,1008.92
2016-09-05T00:32:12.327Z,1008.91
2016-09-05T00:32:22.321Z,1008.89
2016-09-05T00:32:32.316Z,1008.9
2016-09-05T00:32:42.312Z,1008.85
2016-09-05T00:32:52.307Z,1008.89
2016-09-05T00:33:02.306Z,1008.94
2016-09-05T00:33:12.300Z,1008.9
2016-09-05T00:33:22.292Z,1008.89
2016-09-05T00:33:32.290Z,1008.85
2016-09-05T00:33:42.283Z,1008.87
2016-09-05T00:33:52.280Z,1008.84
2016-09-05T00:34:02.274Z,1008.8
2016-09-05T00:34:12.271Z,1008.88
2016-09-05T00:34:22.264Z,1008.88
2016-09-05T00:34:32.260Z,1008.82
2016-09-05T00:34:42.253Z,1008.79
2016-09-05T00:34:52.250Z,1008.87
2016-09-05T00:35:02.246Z,1008.9
2016-09-05T00:35:12.241Z,1008.86
2016-09-05T00:35:22.238Z,1008.83
2016-09-05T00:35:32.233Z,1008.91
2016-09-05T00:35:42.227Z,1008.87
2016-09-05T00:35:52.221Z,1008.86
2016-09-05T00:36:02.219Z,1008.83
2016-09-05T00:36:12.213Z,1008.85
2016-09-05T00:36:22.206Z,1008.84
2016-09-05T00:36:32.202Z,1008.76
2016-09-05T00:36:42.927Z,1008.86
2016-09-05T00:36:52.192Z,1008.85
2016-09-05T00:37:02.189Z,1008.8
2016-09-05T00:37:12.185Z,1008.81
2016-09-05T00:37:22.179Z,1008.83
2016-09-05T00:37:32.176Z,1008.86
2016-09-05T00:37:42.168Z,1008.8
2016-09-05T00:37:52.165Z,1008.77
2016-09-05T00:38:02.160Z,1008.84
2016-09-05T00:38:12.156Z,1008.81
2016-09-05T00:38:22.153Z,1008.82
2016-09-05T00:38:32.145Z,1008.83
2016-09-05T00:38:42.141Z,1008.82
2016-09-05T00:38:52.137Z,1008.84
2016-09-05T00:39:02.134Z,1008.81
2016-09-05T00:39:12.127Z,1008.81
2016-09-05T00:39:22.122Z,1008.8
2016-09-05T00:39:32.117Z,1008.86
2016-09-05T00:39:42.113Z,1008.8
2016-09-05T00:39:52.107Z,1008.8
2016-09-05T00:40:02.105Z,1008.88
2016-09-05T00:40:12.110Z,1008.84
2016-09-05T00:40:22.095Z,1008.85
2016-09-05T00:40:32.096Z,1008.89
2016-09-05T00:40:42.083Z,1008.86
2016-09-05T00:40:52.079Z,1008.87
2016-09-05T00:41:02.074Z,1008.82
2016-09-05T00:41:12.072Z,1008.87
2016-09-05T00:41:22.063Z,1008.85
2016-09-05T00:41:32.061Z,1008.81
2016-09-05T00:41:42.056Z,1008.86
2016-09-05T00:41:52.051Z,1008.84
2016-09-05T00:42:02.045Z,1008.84
2016-09-05T00:42:12.042Z,1008.86
2016-09-05T00:42:22.035Z,1008.81
2016-09-05T00:42:32.034Z,1008.81
2016-09-05T00:42:42.026Z,1008.81
2016-09-05T00:42:52.035Z,1008.8
2016-09-05T00:43:02.016Z,1008.82
2016-09-05T00:43:12.012Z,1008.85
2016-09-05T00:43:22.009Z,1008.87
2016-09-05T00:43:32.005Z,1008.88
2016-09-05T00:43:41.998Z,1008.86
2016-09-05T00:43:51.992Z,1008.91
2016-09-05T00:44:01.987Z,1008.86
2016-09-05T00:44:11.983Z,1008.9
2016-09-05T00:44:21.980Z,1008.91
2016-09-05T00:44:31.975Z,1008.88
2016-09-05T00:44:41.975Z,1008.88
2016-09-05T00:44:51.965Z,1008.89
2016-09-05T00:45:01.959Z,1008.87
2016-09-05T00:45:11.955Z,1008.89
2016-09-05T00:45:21.951Z,1008.9
2016-09-05T00:45:31.947Z,1008.84
2016-09-05T00:45:41.940Z,1008.86
2016-09-05T00:45:51.938Z,1008.9
2016-09-05T00:46:01.931Z,1008.91
2016-09-05T00:46:11.926Z,1008.92
2016-09-05T00:46:21.922Z,1008.92
2016-09-05T00:46:31.918Z,1008.91
2016-09-05T00:46:41.913Z,1008.89
2016-09-05T00:46:51.909Z,1008.9
2016-09-05T00:47:01.903Z,1008.87
2016-09-05T00:47:11.897Z,1008.87
2016-09-05T00:47:21.892Z,1008.89
2016-09-05T00:47:31.887Z,1008.9
2016-09-05T00:47:41.885Z,1008.9
2016-09-05T00:47:51.880Z,1008.91
2016-09-05T00:48:01.874Z,1008.94
2016-09-05T00:48:11.868Z,1008.96
2016-09-05T00:48:21.866Z,1008.88
2016-09-05T00:48:31.861Z,1008.91
2016-09-05T00:48:41.857Z,1008.94
2016-09-05T00:48:51.851Z,1008.93
2016-09-05T00:49:01.844Z,1008.92
2016-09-05T00:49:11.841Z,1008.95
2016-09-05T00:49:21.837Z,1008.94
2016-09-05T00:49:31.829Z,1008.92
2016-09-05T00:49:41.830Z,1008.93
2016-09-05T00:49:51.825Z,1008.86
2016-09-05T00:50:01.818Z,1008.93
2016-09-05T00:50:11.813Z,1008.93
2016-09-05T00:50:21.814Z,1008.92
2016-09-05T00:50:31.804Z,1008.93
2016-09-05T00:50:41.798Z,1008.92
2016-09-05T00:50:51.795Z,1008.88
2016-09-05T00:51:01.787Z,1008.95
2016-09-05T00:51:11.783Z,1008.94
2016-09-05T00:51:21.780Z,1008.92
2016-09-05T00:51:31.776Z,1008.9
2016-09-05T00:51:41.771Z,1008.95
2016-09-05T00:51:51.766Z,1008.97
2016-09-05T00:52:01.761Z,1008.95
2016-09-05T00:52:11.756Z,1008.9
2016-09-05T00:52:21.749Z,1008.86
2016-09-05T00:52:31.744Z,1008.83
2016-09-05T00:52:41.742Z,1008.9
2016-09-05T00:52:51.736Z,1008.92
2016-09-05T00:53:01.734Z,1008.89
2016-09-05T00:53:11.729Z,1008.91
2016-09-05T00:53:21.721Z,1008.92
2016-09-05T00:53:31.719Z,1008.94
2016-09-05T00:53:41.714Z,1008.97
2016-09-05T00:53:51.706Z,1008.94
2016-09-05T00:54:01.703Z,1008.92
2016-09-05T00:54:11.699Z,1008.9
2016-09-05T00:54:21.700Z,1008.93
2016-09-05T00:54:31.690Z,1008.92
2016-09-05T00:54:41.683Z,1008.93
2016-09-05T00:54:51.680Z,1008.97
2016-09-05T00:55:01.674Z,1008.96
2016-09-05T00:55:11.669Z,1008.92
2016-09-05T00:55:21.664Z,1008.97
2016-09-05T00:55:31.660Z,1008.96
2016-09-05T00:55:41.656Z,1008.95
2016-09-05T00:55:51.650Z,1008.94
2016-09-05T00:56:01.647Z,1008.99
2016-09-05T00:56:11.642Z,1008.92
2016-09-05T00:56:21.635Z,1008.96
2016-09-05T00:56:31.638Z,1008.96
2016-09-05T00:56:41.627Z,1008.98
2016-09-05T00:56:51.623Z,1008.98
2016-09-05T00:57:01.618Z,1008.97
2016-09-05T00:57:12.344Z,1008.97
2016-09-05T00:57:21.607Z,1009.01
2016-09-05T00:57:31.605Z,1008.93
2016-09-05T00:57:41.598Z,1008.97
2016-09-05T00:57:51.593Z,1008.93
2016-09-05T00:58:01.590Z,1008.93
2016-09-05T00:58:11.582Z,1008.95
2016-09-05T00:58:21.581Z,1008.89
2016-09-05T00:58:32.305Z,1008.96
2016-09-05T00:58:41.571Z,1008.97
2016-09-05T00:58:51.564Z,1008.88
2016-09-05T00:59:01.560Z,1008.97
2016-09-05T00:59:11.555Z,1008.96
2016-09-05T00:59:21.552Z,1008.93
2016-09-05T00:59:31.547Z,1008.93
2016-09-05T00:59:41.543Z,1008.94
2016-09-05T00:59:51.538Z,1008.87
2016-09-05T01:00:01.533Z,1008.9
2016-09-05T01:00:11.529Z,1008.86
2016-09-05T01:00:21.521Z,1008.91
2016-09-05T01:00:31.519Z,1008.87
2016-09-05T01:00:41.513Z,1008.9
2016-09-05T01:00:51.508Z,1008.92
2016-09-05T01:01:01.502Z,1008.95
2016-09-05T01:01:11.500Z,1008.87
2016-09-05T01:01:21.493Z,1008.93
2016-09-05T01:01:31.489Z,1008.89
2016-09-05T01:01:41.485Z,1008.92
2016-09-05T01:01:51.483Z,1008.99
2016-09-05T01:02:01.475Z,1008.91
2016-09-05T01:02:11.469Z,1008.94
2016-09-05T01:02:21.465Z,1008.89
2016-09-05T01:02:31.460Z,1008.9
2016-09-05T01:02:41.460Z,1008.88
2016-09-05T01:02:51.450Z,1008.91
2016-09-05T01:03:01.446Z,1008.93
2016-09-05T01:03:11.442Z,1008.91
2016-09-05T01:03:21.437Z,1008.95
2016-09-05T01:03:31.431Z,1009.01
2016-09-05T01:03:41.429Z,1008.94
2016-09-05T01:03:51.423Z,1008.92
2016-09-05T01:04:01.418Z,1008.93
2016-09-05T01:04:11.412Z,1008.93
2016-09-05T01:04:21.409Z,1008.93
2016-09-05T01:04:31.404Z,1008.93
2016-09-05T01:04:41.400Z,1008.9
2016-09-05T01:04:51.392Z,1008.97
2016-09-05T01:05:01.388Z,1008.92
2016-09-05T01:05:11.387Z,1008.9
2016-09-05T01:05:21.378Z,1008.9
2016-09-05T01:05:31.375Z,1008.97
2016-09-05T01:05:41.370Z,1008.86
2016-09-05T01:05:51.366Z,1008.86
2016-09-05T01:06:01.361Z,1008.86
2016-09-05T01:06:11.355Z,1008.9
2016-09-05T01:06:21.353Z,1008.93
2016-09-05T01:06:31.351Z,1008.93
2016-09-05T01:06:41.342Z,1008.84
2016-09-05T01:06:51.338Z,1008.9
2016-09-05T01:07:01.331Z,1008.88
2016-09-05T01:07:11.328Z,1008.91
2016-09-05T01:07:21.323Z,1008.9
2016-09-05T01:07:31.316Z,1008.85
2016-09-05T01:07:41.315Z,1008.92
2016-09-05T01:07:51.310Z,1008.87
2016-09-05T01:08:01.304Z,1008.89
2016-09-05T01:08:11.301Z,1008.87
2016-09-05T01:08:21.294Z,1008.86
2016-09-05T01:08:31.290Z,1008.83
2016-09-05T01:08:41.285Z,1008.89
2016-09-05T01:08:51.280Z,1008.87
2016-09-05T01:09:01.274Z,1008.86
2016-09-05T01:09:11.271Z,1008.82
2016-09-05T01:09:21.265Z,1008.89
2016-09-05T01:09:31.261Z,1008.87
2016-09-05T01:09:41.256Z,1008.84
2016-09-05T01:09:51.252Z,1008.87
2016-09-05T01:10:01.248Z,1008.9
2016-09-05T01:10:11.244Z,1008.87
2016-09-05T01:10:21.237Z,1008.86
2016-09-05T01:10:31.233Z,1008.86
2016-09-05T01:10:41.228Z,1008.85
2016-09-05T01:10:51.224Z,1008.83
2016-09-05T01:11:01.216Z,1008.85
2016-09-05T01:11:11.214Z,1008.91
2016-09-05T01:11:21.211Z,1008.93
2016-09-05T01:11:31.204Z,1008.86
2016-09-05T01:11:41.201Z,1008.91
2016-09-05T01:11:51.195Z,1008.93
2016-09-05T01:12:01.189Z,1008.87
2016-09-05T01:12:11.183Z,1008.81
2016-09-05T01:12:21.179Z,1008.88
2016-09-05T01:12:31.175Z,1008.89
2016-09-05T01:12:41.172Z,1008.91
2016-09-05T01:12:51.166Z,1008.91
2016-09-05T01:13:01.160Z,1008.89
2016-09-05T01:13:11.156Z,1008.85
2016-09-05T01:13:21.153Z,1008.89
2016-09-05T01:13:31.148Z,1008.93
2016-09-05T01:13:41.143Z,1008.91
2016-09-05T01:13:51.136Z,1008.85
2016-09-05T01:14:01.132Z,1008.91
2016-09-05T01:14:11.128Z,1008.84
2016-09-05T01:14:21.123Z,1008.84
2016-09-05T01:14:31.119Z,1008.88
2016-09-05T01:14:41.114Z,1008.89
2016-09-05T01:14:51.110Z,1008.88
2016-09-05T01:15:01.101Z,1008.88
2016-09-05T01:15:11.098Z,1008.88
2016-09-05T01:15:21.093Z,1008.84
2016-09-05T01:15:31.090Z,1008.88
2016-09-05T01:15:41.084Z,1008.84
2016-09-05T01:15:51.080Z,1008.9
2016-09-05T01:16:01.076Z,1008.88
2016-09-05T01:16:11.071Z,1008.85
2016-09-05T01:16:21.065Z,1008.9
2016-09-05T01:16:31.060Z,1008.86
2016-09-05T01:16:41.060Z,1008.87
2016-09-05T01:16:51.053Z,1008.87
2016-09-05T01:17:01.047Z,1008.92
2016-09-05T01:17:11.044Z,1008.95
2016-09-05T01:17:21.037Z,1008.91
2016-09-05T01:17:31.033Z,1008.92
2016-09-05T01:17:41.028Z,1008.93
2016-09-05T01:17:51.023Z,1008.9
2016-09-05T01:18:01.021Z,1008.9
2016-09-05T01:18:11.015Z,1008.92
2016-09-05T01:18:21.009Z,1008.9
2016-09-05T01:18:31.003Z,1008.88
2016-09-05T01:18:40.999Z,1008.89
2016-09-05T01:18:50.993Z,1008.89
2016-09-05T01:19:00.991Z,1008.9
2016-09-05T01:19:10.984Z,1008.94
2016-09-05T01:19:20.981Z,1008.91
2016-09-05T01:19:30.972Z,1008.88
2016-09-05T01:19:40.971Z,1008.88
2016-09-05T01:19:50.974Z,1008.87
2016-09-05T01:20:00.960Z,1008.91
2016-09-05T01:20:10.957Z,1008.84
2016-09-05T01:20:20.949Z,1008.85
2016-09-05T01:20:30.947Z,1008.89
2016-09-05T01:20:40.944Z,1008.9
2016-09-05T01:20:51.666Z,1008.9
2016-09-05T01:21:00.932Z,1008.94
2016-09-05T01:21:10.930Z,1008.96
2016-09-05T01:21:20.924Z,1008.86
2016-09-05T01:21:30.918Z,1008.93
2016-09-05T01:21:40.913Z,1008.99
2016-09-05T01:21:50.920Z,1008.92
2016-09-05T01:22:00.905Z,1008.93
2016-09-05T01:22:10.900Z,1008.97
2016-09-05T01:22:20.895Z,1008.96
2016-09-05T01:22:30.890Z,1008.96
2016-09-05T01:22:40.883Z,1008.92
2016-09-05T01:22:50.883Z,1008.97
2016-09-05T01:23:00.877Z,1008.94
2016-09-05T01:23:10.870Z,1008.92
2016-09-05T01:23:20.868Z,1008.93
2016-09-05T01:23:30.862Z,1008.93
2016-09-05T01:23:40.857Z,1008.93
2016-09-05T01:23:50.853Z,1008.94
2016-09-05T01:24:00.847Z,1008.95
2016-09-05T01:24:10.848Z,1008.95
2016-09-05T01:24:20.837Z,1008.96
2016-09-05T01:24:30.833Z,1008.88
2016-09-05T01:24:40.828Z,1008.91
2016-09-05T01:24:50.823Z,1008.94
2016-09-05T01:25:00.817Z,1008.92
2016-09-05T01:25:10.817Z,1008.96
2016-09-05T01:25:20.809Z,1008.95
2016-09-05T01:25:30.805Z,1008.93
2016-09-05T01:25:40.800Z,1008.98
2016-09-05T01:25:50.795Z,1009.04
2016-09-05T01:26:00.788Z,1009.06
2016-09-05T01:26:10.785Z,1009
2016-09-05T01:26:20.778Z,1008.97
2016-09-05T01:26:30.776Z,1009
2016-09-05T01:26:40.774Z,1008.98
2016-09-05T01:26:50.766Z,1008.98
2016-09-05T01:27:00.759Z,1009.01
2016-09-05T01:27:10.759Z,1008.96
2016-09-05T01:27:20.755Z,1009.02
2016-09-05T01:27:30.747Z,1009.04
2016-09-05T01:27:40.742Z,1009.05
2016-09-05T01:27:50.738Z,1008.98
2016-09-05T01:28:00.734Z,1008.97
2016-09-05T01:28:10.728Z,1008.97
2016-09-05T01:28:20.725Z,1008.94
2016-09-05T01:28:30.719Z,1009.02
2016-09-05T01:28:40.714Z,1008.98
2016-09-05T01:28:50.707Z,1009.03
2016-09-05T01:29:00.702Z,1009.03
2016-09-05T01:29:10.702Z,1009.02
2016-09-05T01:29:20.696Z,1008.98
2016-09-05T01:29:30.689Z,1009.02
2016-09-05T01:29:40.685Z,1009.07
2016-09-05T01:29:50.680Z,1009.02
2016-09-05T01:30:00.676Z,1009.07
2016-09-05T01:30:10.672Z,1008.99
2016-09-05T01:30:20.663Z,1009.08
2016-09-05T01:30:30.661Z,1009.09
2016-09-05T01:30:40.657Z,1009.06
2016-09-05T01:30:50.652Z,1009.06
2016-09-05T01:31:00.646Z,1009.08
2016-09-05T01:31:10.641Z,1009.03
2016-09-05T01:31:20.637Z,1009.07
2016-09-05T01:31:30.633Z,1009.06
2016-09-05T01:31:40.630Z,1009.12
2016-09-05T01:31:50.622Z,1009.13
2016-09-05T01:32:00.616Z,1009.13
2016-09-05T01:32:10.613Z,1009.09
2016-09-05T01:32:20.610Z,1009.05
2016-09-05T01:32:30.605Z,1009.07
2016-09-05T01:32:40.601Z,1009.1
2016-09-05T01:32:50.595Z,1009.12
2016-09-05T01:33:00.590Z,1009.07
2016-09-05T01:33:10.585Z,1009.12
2016-09-05T01:33:20.581Z,1009.11
2016-09-05T01:33:30.575Z,1009.12
2016-09-05T01:33:40.570Z,1009.15
2016-09-05T01:33:50.566Z,1009.1
2016-09-05T01:34:00.561Z,1009.12
2016-09-05T01:34:10.554Z,1009.08
2016-09-05T01:34:20.551Z,1009.1
2016-09-05T01:34:30.547Z,1009.09
2016-09-05T01:34:40.542Z,1009.12
2016-09-05T01:34:50.538Z,1009.08
2016-09-05T01:35:00.534Z,1009.08
2016-09-05T01:35:10.528Z,1009.1
2016-09-05T01:35:20.524Z,1009.08
2016-09-05T01:35:30.516Z,1009.09
2016-09-05T01:35:40.514Z,1009.1
2016-09-05T01:35:50.509Z,1009.1
2016-09-05T01:36:00.506Z,1009.07
2016-09-05T01:36:10.498Z,1009.1
2016-09-05T01:36:20.494Z,1009.12
2016-09-05T01:36:30.503Z,1009.1
2016-09-05T01:36:40.491Z,1009.16
2016-09-05T01:36:50.477Z,1009.13
2016-09-05T01:37:00.476Z,1009.09
2016-09-05T01:37:10.471Z,1009.16
2016-09-05T01:37:21.194Z,1009.12
2016-09-05T01:37:30.461Z,1009.11
2016-09-05T01:37:40.456Z,1009.11
2016-09-05T01:37:50.451Z,1009.14
2016-09-05T01:38:00.446Z,1009.09
2016-09-05T01:38:10.442Z,1009.14
2016-09-05T01:38:20.438Z,1009.15
2016-09-05T01:38:30.434Z,1009.17
2016-09-05T01:38:40.427Z,1009.16
2016-09-05T01:38:50.422Z,1009.13
2016-09-05T01:39:00.417Z,1009.14
2016-09-05T01:39:10.413Z,1009.15
2016-09-05T01:39:20.410Z,1009.14
2016-09-05T01:39:30.405Z,1009.14
2016-09-05T01:39:40.400Z,1009.13
2016-09-05T01:39:50.394Z,1009.19
2016-09-05T01:40:00.391Z,1009.19
2016-09-05T01:40:10.386Z,1009.18
2016-09-05T01:40:20.380Z,1009.2
2016-09-05T01:40:30.373Z,1009.19
2016-09-05T01:40:40.371Z,1009.21
2016-09-05T01:40:50.364Z,1009.19
2016-09-05T01:41:00.361Z,1009.19
2016-09-05T01:41:10.356Z,1009.15
2016-09-05T01:41:20.351Z,1009.15
2016-09-05T01:41:30.347Z,1009.19
2016-09-05T01:41:40.341Z,1009.16
2016-09-05T01:41:50.337Z,1009.18
2016-09-05T01:42:00.332Z,1009.19
2016-09-05T01:42:10.328Z,1009.21
2016-09-05T01:42:20.322Z,1009.25
2016-09-05T01:42:30.321Z,1009.21
2016-09-05T01:42:40.312Z,1009.21
2016-09-05T01:42:50.308Z,1009.22
2016-09-05T01:43:00.304Z,1009.24
2016-09-05T01:43:10.298Z,1009.24
2016-09-05T01:43:20.296Z,1009.2
2016-09-05T01:43:30.288Z,1009.23
2016-09-05T01:43:40.282Z,1009.25
2016-09-05T01:43:50.282Z,1009.2
2016-09-05T01:44:00.275Z,1009.21
2016-09-05T01:44:10.274Z,1009.18
2016-09-05T01:44:20.266Z,1009.17
2016-09-05T01:44:30.262Z,1009.2
2016-09-05T01:44:40.257Z,1009.24
2016-09-05T01:44:50.253Z,1009.13
2016-09-05T01:45:00.246Z,1009.2
2016-09-05T01:45:10.242Z,1009.21
2016-09-05T01:45:20.237Z,1009.22
2016-09-05T01:45:30.231Z,1009.22
2016-09-05T01:45:40.234Z,1009.2
2016-09-05T01:45:50.225Z,1009.14
2016-09-05T01:46:00.218Z,1009.21
2016-09-05T01:46:10.213Z,1009.2
2016-09-05T01:46:20.210Z,1009.2
2016-09-05T01:46:30.210Z,1009.2
2016-09-05T01:46:40.199Z,1009.18
2016-09-05T01:46:50.193Z,1009.15
2016-09-05T01:47:00.189Z,1009.14
2016-09-05T01:47:10.186Z,1009.13
2016-09-05T01:47:20.183Z,1009.21
2016-09-05T01:47:30.175Z,1009.18
2016-09-05T01:47:40.168Z,1009.13
2016-09-05T01:47:50.168Z,1009.14
2016-09-05T01:48:00.165Z,1009.15
2016-09-05T01:48:10.155Z,1009.15
2016-09-05T01:48:20.151Z,1009.13
2016-09-05T01:48:30.144Z,1009.15
2016-09-05T01:48:40.142Z,1009.17
2016-09-05T01:48:50.138Z,1009.15
2016-09-05T01:49:00.133Z,1009.17
2016-09-05T01:49:10.130Z,1009.17
2016-09-05T01:49:20.124Z,1009.18
2016-09-05T01:49:30.119Z,1009.13
2016-09-05T01:49:40.113Z,1009.15
2016-09-05T01:49:50.109Z,1009.16
2016-09-05T01:50:00.105Z,1009.19
2016-09-05T01:50:10.099Z,1009.12
2016-09-05T01:50:20.095Z,1009.17
2016-09-05T01:50:30.091Z,1009.17
2016-09-05T01:50:40.087Z,1009.13
2016-09-05T01:50:50.082Z,1009.13
2016-09-05T01:51:00.077Z,1009.16
2016-09-05T01:51:10.074Z,1009.17
2016-09-05T01:51:20.067Z,1009.18
2016-09-05T01:51:30.061Z,1009.17
2016-09-05T01:51:40.057Z,1009.18
2016-09-05T01:51:50.052Z,1009.16
2016-09-05T01:52:00.048Z,1009.19
2016-09-05T01:52:10.040Z,1009.16
2016-09-05T01:52:20.036Z,1009.17
2016-09-05T01:52:30.032Z,1009.16
2016-09-05T01:52:40.033Z,1009.19
2016-09-05T01:52:50.022Z,1009.19
2016-09-05T01:53:00.020Z,1009.18
2016-09-05T01:53:10.021Z,1009.22
2016-09-05T01:53:20.007Z,1009.2
2016-09-05T01:53:30.005Z,1009.19
2016-09-05T01:53:39.998Z,1009.17
2016-09-05T01:53:49.994Z,1009.19
2016-09-05T01:53:59.990Z,1009.19
2016-09-05T01:54:09.984Z,1009.2
2016-09-05T01:54:19.980Z,1009.24
2016-09-05T01:54:29.977Z,1009.17
2016-09-05T01:54:39.970Z,1009.19
2016-09-05T01:54:49.966Z,1009.25
2016-09-05T01:54:59.960Z,1009.21
2016-09-05T01:55:09.956Z,1009.2
2016-09-05T01:55:19.950Z,1009.19
2016-09-05T01:55:29.947Z,1009.2
2016-09-05T01:55:39.944Z,1009.21
2016-09-05T01:55:49.937Z,1009.24
2016-09-05T01:55:59.933Z,1009.16
2016-09-05T01:56:09.927Z,1009.16
2016-09-05T01:56:19.924Z,1009.22
2016-09-05T01:56:29.917Z,1009.19
2016-09-05T01:56:39.914Z,1009.2
2016-09-05T01:56:49.906Z,1009.23
2016-09-05T01:56:59.906Z,1009.18
2016-09-05T01:57:09.898Z,1009.23
2016-09-05T01:57:19.894Z,1009.23
2016-09-05T01:57:29.890Z,1009.23
2016-09-05T01:57:39.885Z,1009.2
2016-09-05T01:57:49.879Z,1009.2
2016-09-05T01:57:59.877Z,1009.16
2016-09-05T01:58:09.870Z,1009.24
2016-09-05T01:58:19.865Z,1009.29
2016-09-05T01:58:29.861Z,1009.29
2016-09-05T01:58:39.855Z,1009.32
2016-09-05T01:58:49.852Z,1009.24
2016-09-05T01:58:59.845Z,1009.2
2016-09-05T01:59:09.842Z,1009.2
2016-09-05T01:59:19.837Z,1009.22
2016-09-05T01:59:29.836Z,1009.21
2016-09-05T01:59:40.557Z,1009.21
2016-09-05T01:59:49.823Z,1009.25
2016-09-05T01:59:59.817Z,1009.29
2016-09-05T02:00:09.812Z,1009.21
2016-09-05T02:00:19.807Z,1009.26
2016-09-05T02:00:29.803Z,1009.27
2016-09-05T02:00:39.799Z,1009.22
2016-09-05T02:00:49.792Z,1009.26
2016-09-05T02:00:59.789Z,1009.3
2016-09-05T02:01:09.784Z,1009.29
2016-09-05T02:01:19.780Z,1009.23
2016-09-05T02:01:29.776Z,1009.25